Majesty of the Seas — C6FZ8 — position and weather

sailwx.info

Track history (hours):
 
Tides and Currents Weather Stations Pressure Air Temp Water Temp Dewpoint Dewpoint Depression Visibility Wind Speed Wind Dir Waves Ship Positions

Majesty of the Seas (Bahamas)

Last reported at 2020-Apr-05 06:00 UTC. Time now 2020-Apr-05 22:12 UTC.
Position N 27°48' W 093°18'.

Length 268 m; draft 8 m.

Type: Ship. MMSI: 311734000.

Wind from 060 at 28 knots

Barometer 1012.9 mb
Air temperature 20.0 ° C
Visibility: greater than 10.8 NM
Dewpoint 18.4 ° C
Water temperature 25.0 ° C

Date/timePositionNaut miles runAvg speedWind from/ knotsBaromVisibWave heightAir tempDewpointWater temp
2020-Apr-05 06:00N 27°48' W 093°18'115 7.6 060 / 281012.910.8 20.018.425.0
2020-Apr-04 14:52N 27°58' W 091°09'3 7.4
2020-Apr-04 14:30N 27°58' W 091°05'8 7.3
2020-Apr-04 13:23N 27°59' W 090°56'23 7.0
2020-Apr-04 10:03N 28°00' W 090°30'0 6.7
2020-Apr-04 10:00N 28°00' W 090°30'18 7.0
2020-Apr-04 07:29N 28°01' W 090°10'153 6.0
2020-Apr-03 06:00N 29°30' W 087°48'53 1.2 100 / 51016.010.8 20.010.924.0
2020-Apr-01 10:30N 30°08' W 088°32'  
2020-Mar-27 12:30N 30°21' W 089°06'0 0.0
2020-Mar-27 11:30N 30°21' W 089°06'0 0.0
2020-Mar-27 10:15N 30°21' W 089°06'0 0.0
2020-Mar-27 10:00N 30°21' W 089°06'0 0.0
2020-Mar-27 07:51N 30°21' W 089°06'0 0.0
2020-Mar-27 06:00N 30°21' W 089°06'0 0.0
2020-Mar-27 03:30N 30°21' W 089°06'0 0.0
2020-Mar-26 14:38N 30°21' W 089°06'0 0.0
2020-Mar-26 13:05N 30°21' W 089°06'0 0.0
2020-Mar-26 10:58N 30°21' W 089°06'0 0.0
2020-Mar-26 09:55N 30°21' W 089°06'0 0.0
2020-Mar-26 09:22N 30°21' W 089°06'0 0.0
2020-Mar-26 07:58N 30°21' W 089°06'  
Track history (hours):
 
Tides and Currents Weather Stations Pressure Air Temp Water Temp Dewpoint Dewpoint Depression Visibility Wind Speed Wind Dir Waves Ship Positions

Majesty of the Seas (Bahamas)

Last reported at 2020-Apr-05 06:00 UTC. Time now 2020-Apr-05 22:12 UTC.
Position N 27°48' W 093°18'.

Length 268 m; draft 8 m.

Type: Ship. MMSI: 311734000.

Wind from 060 at 28 knots

Barometer 1012.9 mb
Air temperature 20.0 ° C
Visibility: greater than 10.8 NM
Dewpoint 18.4 ° C
Water temperature 25.0 ° C

Date/timePositionNaut miles runAvg speedWind from/ knotsBaromVisibWave heightAir tempDewpointWater temp
2020-Apr-05 06:00N 27°48' W 093°18'115 7.6 060 / 281012.910.8 20.018.425.0
2020-Apr-04 14:52N 27°58' W 091°09'3 7.4
2020-Apr-04 14:30N 27°58' W 091°05'8 7.3
2020-Apr-04 13:23N 27°59' W 090°56'23 7.0
2020-Apr-04 10:03N 28°00' W 090°30'0 6.7
2020-Apr-04 10:00N 28°00' W 090°30'18 7.0
2020-Apr-04 07:29N 28°01' W 090°10'153 6.0
2020-Apr-03 06:00N 29°30' W 087°48'53 1.2 100 / 51016.010.8 20.010.924.0
2020-Apr-01 10:30N 30°08' W 088°32'  
2020-Mar-27 12:30N 30°21' W 089°06'0 0.0
2020-Mar-27 11:30N 30°21' W 089°06'0 0.0
2020-Mar-27 10:15N 30°21' W 089°06'0 0.0
2020-Mar-27 10:00N 30°21' W 089°06'0 0.0
2020-Mar-27 07:51N 30°21' W 089°06'0 0.0
2020-Mar-27 06:00N 30°21' W 089°06'0 0.0
2020-Mar-27 03:30N 30°21' W 089°06'0 0.0
2020-Mar-26 14:38N 30°21' W 089°06'0 0.0
2020-Mar-26 13:05N 30°21' W 089°06'0 0.0
2020-Mar-26 10:58N 30°21' W 089°06'0 0.0
2020-Mar-26 09:55N 30°21' W 089°06'0 0.0
2020-Mar-26 09:22N 30°21' W 089°06'0 0.0
2020-Mar-26 07:58N 30°21' W 089°06'  

Dump ship's entire track history